Terminal Aerodrome Forecast
Issued by NWS Paducah, KY

Home | Current Version | Previous Version | Text Only | Print | Product List | Glossary On
Versions: 1 2 3 4 5 6 7 8 9 10 11 12 13 14 15 16
000
FTUS43 KPAH 260537
TAFEVV
TAF
KEVV 260537Z 2606/2706 01003KT P6SM SCT250
     FM261000 36004KT P6SM BKN050
     FM261300 35011KT P6SM OVC015=

USA.gov is the U.S. government's official web portal to all federal, state and local government web resources and services.